createdAt,value
2024-01-16T00:00:16.494Z,5.40
2024-01-16T00:02:45.190Z,2.47
2024-01-16T00:05:15.593Z,5.97
2024-01-16T00:07:45.067Z,3.47
2024-01-16T00:10:13.543Z,6.65
2024-01-16T00:12:42.688Z,3.73
2024-01-16T00:15:11.939Z,3.35
2024-01-16T00:17:40.660Z,3.00
2024-01-16T00:20:09.609Z,5.88
2024-01-16T00:22:39.562Z,3.63
2024-01-16T00:25:09.150Z,4.25
2024-01-16T00:27:37.588Z,3.05
2024-01-16T00:30:09.329Z,4.25
2024-01-16T00:32:38.025Z,3.58
2024-01-16T00:35:06.817Z,5.43
2024-01-16T00:37:35.754Z,5.87
2024-01-16T00:40:06.412Z,2.92
2024-01-16T00:42:35.562Z,5.78
2024-01-16T00:45:04.067Z,4.38
2024-01-16T00:47:33.213Z,3.85
2024-01-16T00:50:04.075Z,7.18
2024-01-16T00:52:32.520Z,4.15
2024-01-16T00:55:00.673Z,5.78
2024-01-16T00:57:31.353Z,3.73
2024-01-16T01:00:00.914Z,6.57
2024-01-16T01:02:28.972Z,3.45
2024-01-16T01:04:58.604Z,4.00
2024-01-16T01:07:28.206Z,4.70
2024-01-16T01:12:25.081Z,4.38
2024-01-16T01:14:55.823Z,6.93
2024-01-16T01:17:25.296Z,7.97
2024-01-16T01:19:53.891Z,6.05
2024-01-16T01:22:22.819Z,8.10
2024-01-16T01:24:52.291Z,2.50
2024-01-16T01:27:20.728Z,4.88
2024-01-16T01:29:49.372Z,8.60
2024-01-16T01:32:21.797Z,6.47
2024-01-16T01:34:51.262Z,4.65
2024-01-16T01:37:19.269Z,5.75
2024-01-16T01:39:48.154Z,8.25
2024-01-16T01:42:17.650Z,8.70
2024-01-16T01:44:46.535Z,6.38
2024-01-16T01:47:15.665Z,7.85
2024-01-16T01:49:45.736Z,6.35
2024-01-16T01:52:15.170Z,8.73
2024-01-16T01:54:44.130Z,6.70
2024-01-16T01:57:12.526Z,4.60
2024-01-16T01:59:40.699Z,8.02
2024-01-16T02:02:09.808Z,6.22
2024-01-16T02:04:38.776Z,11.93
2024-01-16T02:07:10.618Z,11.70
2024-01-16T02:09:39.966Z,8.50
2024-01-16T02:12:09.299Z,6.78
2024-01-16T02:14:38.198Z,7.45
2024-01-16T02:17:08.175Z,7.75
2024-01-16T02:19:36.666Z,7.47
2024-01-16T02:22:08.984Z,7.88
2024-01-16T02:24:38.633Z,12.15
2024-01-16T02:27:07.161Z,6.43
2024-01-16T02:29:36.196Z,6.63
2024-01-16T02:32:04.520Z,6.63
2024-01-16T02:34:33.506Z,9.57
2024-01-16T02:37:02.253Z,7.68
2024-01-16T02:39:30.592Z,6.57
2024-01-16T02:41:59.919Z,9.55
2024-01-16T02:44:29.597Z,7.80
2024-01-16T02:47:00.258Z,9.90
2024-01-16T02:49:33.039Z,11.18
2024-01-16T02:52:01.382Z,6.30
2024-01-16T02:54:29.315Z,7.38
2024-01-16T02:56:59.887Z,6.95
2024-01-16T02:59:29.933Z,8.00
2024-01-16T03:02:00.033Z,6.50
2024-01-16T03:04:30.382Z,6.57
2024-01-16T03:06:58.408Z,9.43
2024-01-16T03:09:26.727Z,8.30
2024-01-16T03:11:55.161Z,4.45
2024-01-16T03:14:24.754Z,4.22
2024-01-16T03:16:53.542Z,9.90
2024-01-16T03:19:21.650Z,20.75
2024-01-16T03:21:50.215Z,7.50
2024-01-16T03:24:18.182Z,8.85
2024-01-16T03:26:46.985Z,9.95
2024-01-16T03:29:15.044Z,11.68
2024-01-16T03:31:44.950Z,5.13
2024-01-16T03:34:13.421Z,9.52
2024-01-16T03:36:41.746Z,8.43
2024-01-16T03:39:10.108Z,6.90
2024-01-16T03:41:40.106Z,10.57
2024-01-16T03:44:08.271Z,8.27
2024-01-16T03:46:36.227Z,8.48
2024-01-16T03:49:06.439Z,10.52
2024-01-16T03:51:35.039Z,8.93
2024-01-16T03:54:02.991Z,7.10
2024-01-16T03:56:32.160Z,8.77
2024-01-16T03:59:00.156Z,8.77
2024-01-16T04:01:33.944Z,13.82
2024-01-16T04:04:02.843Z,6.72
2024-01-16T04:06:33.996Z,7.97
2024-01-16T04:09:02.017Z,9.20
2024-01-16T04:11:30.024Z,12.02
2024-01-16T04:13:58.809Z,8.88
2024-01-16T04:16:26.778Z,9.57
2024-01-16T04:18:56.220Z,9.03
2024-01-16T04:21:24.641Z,10.57
2024-01-16T04:23:54.319Z,14.73
2024-01-16T04:26:23.025Z,10.95
2024-01-16T04:28:51.551Z,10.07
2024-01-16T04:31:20.612Z,9.65
2024-01-16T04:33:48.644Z,9.30
2024-01-16T04:36:17.578Z,13.77
2024-01-16T04:38:45.587Z,11.77
2024-01-16T04:41:15.628Z,10.95
2024-01-16T04:43:45.433Z,12.23
2024-01-16T04:46:13.614Z,10.18
2024-01-16T04:48:41.678Z,12.55
2024-01-16T04:51:11.030Z,13.73
2024-01-16T04:53:39.172Z,14.35
2024-01-16T04:56:07.703Z,14.68
2024-01-16T04:58:37.772Z,12.68
2024-01-16T05:01:05.940Z,11.02
2024-01-16T05:03:33.970Z,16.75
2024-01-16T05:06:03.094Z,8.07
2024-01-16T05:08:31.608Z,10.95
2024-01-16T05:11:00.624Z,12.85
2024-01-16T05:13:28.593Z,11.32
2024-01-16T05:15:58.904Z,6.35
2024-01-16T05:18:27.056Z,9.20
2024-01-16T05:21:00.435Z,11.73
2024-01-16T05:23:28.892Z,14.55
2024-01-16T05:25:56.897Z,9.48
2024-01-16T05:28:26.122Z,13.38
2024-01-16T05:30:54.110Z,7.82
2024-01-16T05:33:26.349Z,12.63
2024-01-16T05:35:54.605Z,10.60
2024-01-16T05:38:22.634Z,11.25
2024-01-16T05:40:51.266Z,12.63
2024-01-16T05:43:19.222Z,7.90
2024-01-16T05:45:47.899Z,11.25
2024-01-16T05:48:17.881Z,6.85
2024-01-16T05:50:47.555Z,12.77
2024-01-16T05:53:16.223Z,5.80
2024-01-16T05:55:44.995Z,13.05
2024-01-16T05:58:15.186Z,6.63
2024-01-16T06:00:43.960Z,10.13
2024-01-16T06:03:12.347Z,8.73
2024-01-16T06:05:40.752Z,6.53
2024-01-16T06:08:10.266Z,9.30
2024-01-16T06:10:39.383Z,10.10
2024-01-16T06:13:07.341Z,11.45
2024-01-16T06:15:35.673Z,9.65
2024-01-16T06:18:04.194Z,12.20
2024-01-16T06:20:34.228Z,10.90
2024-01-16T06:23:02.841Z,8.40
2024-01-16T06:25:32.745Z,13.85
2024-01-16T06:28:04.191Z,10.55
2024-01-16T06:30:33.665Z,10.25
2024-01-16T06:33:02.022Z,9.40
2024-01-16T06:35:30.640Z,7.70
2024-01-16T06:37:59.917Z,9.55
2024-01-16T06:40:27.946Z,13.32
2024-01-16T06:42:57.249Z,8.80
2024-01-16T06:45:27.546Z,11.65
2024-01-16T06:47:55.760Z,9.45
2024-01-16T06:50:24.624Z,16.83
2024-01-16T06:52:54.500Z,11.77
2024-01-16T06:55:22.667Z,12.13
2024-01-16T06:57:50.591Z,11.50
2024-01-16T07:00:21.512Z,11.60
2024-01-16T07:02:52.775Z,13.55
2024-01-16T07:05:22.126Z,14.15
2024-01-16T07:07:50.161Z,14.70
2024-01-16T07:10:20.341Z,13.18
2024-01-16T07:12:50.268Z,8.73
2024-01-16T07:15:18.469Z,11.77
2024-01-16T07:17:47.926Z,9.38
2024-01-16T07:20:16.853Z,12.52
2024-01-16T07:22:44.867Z,10.90
2024-01-16T07:25:13.580Z,12.15
2024-01-16T07:27:44.240Z,10.80
2024-01-16T07:30:13.279Z,12.02
2024-01-16T07:32:41.443Z,14.82
2024-01-16T07:35:12.487Z,13.40
2024-01-16T07:37:42.019Z,10.00
2024-01-16T07:40:10.781Z,11.50
2024-01-16T07:42:39.845Z,16.20
2024-01-16T07:45:08.665Z,12.50
2024-01-16T07:47:37.602Z,13.13
2024-01-16T07:50:08.670Z,11.30
2024-01-16T07:52:38.711Z,13.32
2024-01-16T07:55:08.274Z,17.30
2024-01-16T07:57:36.192Z,10.75
2024-01-16T08:00:06.616Z,10.43
2024-01-16T08:02:35.905Z,9.75
2024-01-16T08:05:04.107Z,12.18
2024-01-16T08:07:32.698Z,8.15
2024-01-16T08:10:02.676Z,13.27
2024-01-16T08:12:31.441Z,13.38
2024-01-16T08:14:59.430Z,10.13
2024-01-16T08:17:28.698Z,12.52
2024-01-16T08:19:56.704Z,10.40
2024-01-16T08:22:25.122Z,12.77
2024-01-16T08:24:53.852Z,10.52
2024-01-16T08:27:23.245Z,11.02
2024-01-16T08:29:51.866Z,11.88
2024-01-16T08:32:21.001Z,12.35
2024-01-16T08:34:49.073Z,12.93
2024-01-16T08:37:17.075Z,14.35
2024-01-16T08:39:46.230Z,6.43
2024-01-16T08:42:14.208Z,9.55
2024-01-16T08:44:44.311Z,9.88
2024-01-16T08:47:13.390Z,9.63
2024-01-16T08:49:41.699Z,12.60
2024-01-16T08:52:11.026Z,9.90
2024-01-16T08:54:39.438Z,10.05
2024-01-16T08:57:07.557Z,8.85
2024-01-16T08:59:35.505Z,8.73
2024-01-16T09:02:06.721Z,7.53
2024-01-16T09:04:35.282Z,10.95
2024-01-16T09:07:05.802Z,10.80
2024-01-16T09:09:35.169Z,8.93
2024-01-16T09:12:03.416Z,9.45
2024-01-16T09:14:32.052Z,8.90
2024-01-16T09:17:00.452Z,8.63
2024-01-16T09:19:30.549Z,10.13
2024-01-16T09:22:00.050Z,7.53
2024-01-16T09:24:28.462Z,7.15
2024-01-16T09:26:56.677Z,8.10
2024-01-16T09:29:25.732Z,10.27
2024-01-16T09:31:54.773Z,10.85
2024-01-16T09:34:22.787Z,10.07
2024-01-16T09:36:52.683Z,7.72
2024-01-16T09:39:21.072Z,8.13
2024-01-16T09:41:50.507Z,7.82
2024-01-16T09:44:18.610Z,7.35
2024-01-16T09:46:51.447Z,10.63
2024-01-16T09:49:20.223Z,9.45
2024-01-16T09:51:48.547Z,9.00
2024-01-16T09:54:18.880Z,9.40
2024-01-16T09:56:47.357Z,12.88
2024-01-16T09:59:20.887Z,8.20
2024-01-16T10:01:51.239Z,10.27
2024-01-16T10:04:21.965Z,14.35
2024-01-16T10:06:51.973Z,12.18
2024-01-16T10:11:51.434Z,14.52
2024-01-16T10:14:20.432Z,16.67
2024-01-16T10:16:59.672Z,14.90
2024-01-16T10:19:39.518Z,17.05
2024-01-16T10:22:15.441Z,14.45
2024-01-16T10:24:44.845Z,17.83
2024-01-16T10:27:18.476Z,20.45
2024-01-16T10:30:00.578Z,17.20
2024-01-16T10:32:32.222Z,17.05
2024-01-16T10:35:05.980Z,21.00
2024-01-16T10:37:44.077Z,17.90
2024-01-16T10:40:17.312Z,22.90
2024-01-16T10:42:47.800Z,25.67
2024-01-16T10:45:20.665Z,24.13
2024-01-16T10:47:51.560Z,21.25
2024-01-16T10:50:19.749Z,21.52
2024-01-16T10:52:51.131Z,24.05
2024-01-16T10:55:24.736Z,21.65
2024-01-16T10:57:53.383Z,24.40
2024-01-16T11:00:22.951Z,22.33
2024-01-16T11:02:55.601Z,21.50
2024-01-16T11:05:27.038Z,17.90
2024-01-16T11:08:00.118Z,18.85
2024-01-16T11:10:29.992Z,20.65
2024-01-16T11:13:03.418Z,26.27
2024-01-16T11:15:31.519Z,20.48
2024-01-16T11:18:01.702Z,21.27
2024-01-16T11:20:55.126Z,20.70
2024-01-16T11:23:20.600Z,14.88
2024-01-16T11:25:50.421Z,18.77
2024-01-16T11:28:20.298Z,18.10
2024-01-16T11:30:49.189Z,14.30
2024-01-16T11:33:46.086Z,17.83
2024-01-16T11:36:53.415Z,17.13
2024-01-16T11:39:23.820Z,13.30
2024-01-16T11:41:57.850Z,14.40
2024-01-16T11:44:44.653Z,15.57
2024-01-16T11:47:18.488Z,14.45
2024-01-16T11:49:48.877Z,11.93
2024-01-16T11:52:17.193Z,11.65
2024-01-16T11:54:47.640Z,12.63
2024-01-16T11:58:07.138Z,12.40
2024-01-16T12:00:39.932Z,11.55
2024-01-16T12:03:11.244Z,13.35
2024-01-16T12:05:39.817Z,12.50
2024-01-16T12:08:07.813Z,9.43
2024-01-16T12:10:50.872Z,7.25
2024-01-16T12:13:20.715Z,10.65
2024-01-16T12:15:49.306Z,8.68
2024-01-16T12:18:30.942Z,8.55
2024-01-16T12:21:11.801Z,13.65
2024-01-16T12:23:47.056Z,9.43
2024-01-16T12:26:22.877Z,10.02
2024-01-16T12:28:58.774Z,10.18
2024-01-16T12:31:29.552Z,7.28
2024-01-16T12:34:07.602Z,7.65
2024-01-16T12:36:36.007Z,8.98
2024-01-16T12:39:04.030Z,7.32
2024-01-16T12:41:42.663Z,10.02
2024-01-16T12:44:16.753Z,8.77
2024-01-16T12:46:56.394Z,8.95
2024-01-16T12:49:24.976Z,6.65
2024-01-16T12:51:54.047Z,6.47
2024-01-16T12:54:24.161Z,11.50
2024-01-16T12:57:01.057Z,7.07
2024-01-16T12:59:32.324Z,6.80
2024-01-16T13:02:01.777Z,6.38
2024-01-16T13:04:29.806Z,9.85
2024-01-16T13:07:04.583Z,9.90
2024-01-16T13:09:33.139Z,6.68
2024-01-16T13:12:01.662Z,6.78
2024-01-16T13:14:33.205Z,8.82
2024-01-16T13:17:02.701Z,9.68
2024-01-16T13:19:35.189Z,7.77
2024-01-16T13:22:04.243Z,9.95
2024-01-16T13:24:32.159Z,6.30
2024-01-16T13:27:01.181Z,7.32
2024-01-16T13:29:30.028Z,8.88
2024-01-16T13:32:01.070Z,7.95
2024-01-16T13:34:30.328Z,5.38
2024-01-16T13:37:15.096Z,8.52
2024-01-16T13:39:45.324Z,7.28
2024-01-16T13:42:13.752Z,8.38
2024-01-16T13:44:41.911Z,9.75
2024-01-16T13:47:13.692Z,10.63
2024-01-16T13:49:45.113Z,10.25
2024-01-16T13:52:13.155Z,9.15
2024-01-16T13:54:43.090Z,11.10
2024-01-16T13:57:14.007Z,12.55
2024-01-16T13:59:42.501Z,7.30
2024-01-16T14:02:12.675Z,8.45
2024-01-16T14:04:42.339Z,6.88
2024-01-16T14:07:13.384Z,9.90
2024-01-16T14:09:46.117Z,7.78
2024-01-16T14:12:15.515Z,6.75
2024-01-16T14:14:44.360Z,10.70
2024-01-16T14:17:16.255Z,6.60
2024-01-16T14:19:44.461Z,9.75
2024-01-16T14:22:12.503Z,12.75
2024-01-16T14:24:41.710Z,9.13
2024-01-16T14:27:11.554Z,10.57
2024-01-16T14:29:42.525Z,10.70
2024-01-16T14:34:40.779Z,7.95
2024-01-16T14:37:10.392Z,8.02
2024-01-16T14:39:38.344Z,6.95
2024-01-16T14:42:08.889Z,10.65
2024-01-16T14:44:38.041Z,8.30
2024-01-16T14:47:06.314Z,7.63
2024-01-16T14:49:35.830Z,7.28
2024-01-16T14:52:07.953Z,8.93
2024-01-16T14:54:35.927Z,10.13
2024-01-16T14:57:04.097Z,11.75
2024-01-16T14:59:33.032Z,9.35
2024-01-16T15:02:01.051Z,12.25
2024-01-16T15:04:29.790Z,8.82
2024-01-16T15:06:58.454Z,6.93
2024-01-16T15:09:28.518Z,10.20
2024-01-16T15:11:57.139Z,10.52
2024-01-16T15:14:25.611Z,9.57
2024-01-16T15:16:53.774Z,8.98
2024-01-16T15:19:21.888Z,10.15
2024-01-16T15:21:51.976Z,10.32
2024-01-16T15:24:27.209Z,8.00
2024-01-16T15:26:58.568Z,9.60
2024-01-16T15:29:27.026Z,9.20
2024-01-16T15:31:55.063Z,7.88
2024-01-16T15:34:24.950Z,9.90
2024-01-16T15:36:54.700Z,9.57
2024-01-16T15:39:25.131Z,8.20
2024-01-16T15:41:53.549Z,10.93
2024-01-16T15:44:22.908Z,13.38
2024-01-16T15:49:27.492Z,7.78
2024-01-16T15:51:56.478Z,8.37
2024-01-16T15:54:25.825Z,9.48
2024-01-16T15:56:53.983Z,9.15
2024-01-16T15:59:24.094Z,8.85
2024-01-16T16:01:52.791Z,10.27
2024-01-16T16:04:20.900Z,7.87
2024-01-16T16:06:48.977Z,9.98
2024-01-16T16:09:18.590Z,6.90
2024-01-16T16:11:47.087Z,7.07
2024-01-16T16:14:16.650Z,9.18
2024-01-16T16:16:47.267Z,10.27
2024-01-16T16:19:15.992Z,7.13
2024-01-16T16:21:46.215Z,12.93
2024-01-16T16:24:16.084Z,10.15
2024-01-16T16:26:45.173Z,7.50
2024-01-16T16:29:15.826Z,9.02
2024-01-16T16:31:45.440Z,8.90
2024-01-16T16:34:16.534Z,7.07
2024-01-16T16:36:45.224Z,10.73
2024-01-16T16:39:14.158Z,9.27
2024-01-16T16:41:43.511Z,10.38
2024-01-16T16:44:11.785Z,7.25
2024-01-16T16:46:40.267Z,8.40
2024-01-16T16:49:11.076Z,8.32
2024-01-16T16:51:43.297Z,6.93
2024-01-16T16:54:13.323Z,8.93
2024-01-16T16:56:42.622Z,8.88
2024-01-16T16:59:11.432Z,7.28
2024-01-16T17:01:41.314Z,11.93
2024-01-16T17:04:10.915Z,12.73
2024-01-16T17:06:39.729Z,15.45
2024-01-16T17:09:09.592Z,7.30
2024-01-16T17:11:40.822Z,11.52
2024-01-16T17:14:10.914Z,9.68
2024-01-16T17:16:39.734Z,12.07
2024-01-16T17:19:09.652Z,7.28
2024-01-16T17:21:40.602Z,15.27
2024-01-16T17:24:09.005Z,9.07
2024-01-16T17:26:38.402Z,10.13
2024-01-16T17:29:08.725Z,7.05
2024-01-16T17:34:07.607Z,8.02
2024-01-16T17:36:36.094Z,11.18
2024-01-16T17:39:10.909Z,10.98
2024-01-16T17:41:41.056Z,9.52
2024-01-16T17:44:10.096Z,9.43
2024-01-16T17:46:38.721Z,9.55
2024-01-16T17:49:07.255Z,11.50
2024-01-16T17:51:35.800Z,10.50
2024-01-16T17:54:03.813Z,13.15
2024-01-16T17:56:34.914Z,13.90
2024-01-16T17:59:05.136Z,8.98
2024-01-16T18:01:35.999Z,11.27
2024-01-16T18:04:04.252Z,16.55
2024-01-16T18:06:32.798Z,13.27
2024-01-16T18:09:05.103Z,14.85
2024-01-16T18:11:34.571Z,13.27
2024-01-16T18:14:04.885Z,14.15
2024-01-16T18:16:32.821Z,12.57
2024-01-16T18:19:04.858Z,19.35
2024-01-16T18:21:35.880Z,13.32
2024-01-16T18:24:04.968Z,12.15
2024-01-16T18:26:34.391Z,11.30
2024-01-16T18:29:03.002Z,12.50
2024-01-16T18:31:32.753Z,12.52
2024-01-16T18:36:29.748Z,11.80
2024-01-16T18:38:58.978Z,11.88
2024-01-16T18:41:26.998Z,13.13
2024-01-16T18:43:57.129Z,14.90
2024-01-16T18:46:26.975Z,14.35
2024-01-16T18:48:57.760Z,11.27
2024-01-16T18:51:27.037Z,12.05
2024-01-16T18:53:55.030Z,17.05
2024-01-16T18:56:23.686Z,13.07
2024-01-16T18:58:56.426Z,13.38
2024-01-16T19:01:29.804Z,12.18
2024-01-16T19:03:59.262Z,12.68
2024-01-16T19:06:27.244Z,13.17
2024-01-16T19:08:57.314Z,15.93
2024-01-16T19:11:26.666Z,12.25
2024-01-16T19:13:54.738Z,13.57
2024-01-16T19:16:25.345Z,12.85
2024-01-16T19:18:54.153Z,13.18
2024-01-16T19:21:22.335Z,11.88
2024-01-16T19:23:52.773Z,12.15
2024-01-16T19:26:22.329Z,18.45
2024-01-16T19:28:50.520Z,13.05
2024-01-16T19:31:18.579Z,11.77
2024-01-16T19:33:50.604Z,14.77
2024-01-16T19:36:18.825Z,12.20
2024-01-16T19:38:46.795Z,17.83
2024-01-16T19:41:18.085Z,11.95
2024-01-16T19:43:47.232Z,13.38
2024-01-16T19:46:15.191Z,16.10
2024-01-16T19:48:44.505Z,11.45
2024-01-16T19:51:14.048Z,12.52
2024-01-16T19:57:40.215Z,11.98
2024-01-16T20:01:22.446Z,16.25
2024-01-16T20:03:55.139Z,10.38
2024-01-16T20:06:27.460Z,15.15
2024-01-16T20:09:29.216Z,14.57
2024-01-16T20:13:07.477Z,16.45
2024-01-16T20:16:39.284Z,12.35
2024-01-16T20:19:18.244Z,12.70
2024-01-16T20:25:41.456Z,13.38
2024-01-16T20:28:11.304Z,9.95
2024-01-16T20:30:42.617Z,11.88
2024-01-16T20:33:12.574Z,11.10
2024-01-16T20:35:46.137Z,11.77
2024-01-16T20:38:17.256Z,16.63
2024-01-16T20:40:50.824Z,14.18
2024-01-16T20:43:20.966Z,14.43
2024-01-16T20:45:50.336Z,10.52
2024-01-16T20:48:18.993Z,9.75
2024-01-16T20:50:47.358Z,11.07
2024-01-16T20:53:16.744Z,12.80
2024-01-16T20:55:45.195Z,12.73
2024-01-16T20:58:15.446Z,9.10
2024-01-16T21:00:46.897Z,14.18
2024-01-16T21:03:19.372Z,12.50
2024-01-16T21:05:49.686Z,8.82
2024-01-16T21:08:18.402Z,10.80
2024-01-16T21:10:46.511Z,16.05
2024-01-16T21:13:25.862Z,10.82
2024-01-16T21:15:54.443Z,14.10
2024-01-16T21:18:22.659Z,9.18
2024-01-16T21:20:52.167Z,11.82
2024-01-16T21:23:20.553Z,9.23
2024-01-16T21:25:49.291Z,8.80
2024-01-16T21:28:19.419Z,10.43
2024-01-16T21:30:47.753Z,10.10
2024-01-16T21:33:15.784Z,9.80
2024-01-16T21:35:44.665Z,9.27
2024-01-16T21:38:12.649Z,10.65
2024-01-16T21:40:42.188Z,8.57
2024-01-16T21:43:11.170Z,11.38
2024-01-16T21:45:40.784Z,10.48
2024-01-16T21:50:39.890Z,12.60
2024-01-16T21:53:08.150Z,10.77
2024-01-16T21:55:37.105Z,9.43
2024-01-16T21:58:05.836Z,11.80
2024-01-16T22:00:34.672Z,8.88
2024-01-16T22:03:04.883Z,12.02
2024-01-16T22:05:33.345Z,11.50
2024-01-16T22:08:01.570Z,10.38
2024-01-16T22:10:29.847Z,8.00
2024-01-16T22:12:58.918Z,11.15
2024-01-16T22:15:27.285Z,8.85
2024-01-16T22:17:57.001Z,10.55
2024-01-16T22:20:31.313Z,8.07
2024-01-16T22:23:01.200Z,9.88
2024-01-16T22:25:29.849Z,8.88
2024-01-16T22:27:58.561Z,11.98
2024-01-16T22:30:28.726Z,8.18
2024-01-16T22:33:01.324Z,12.10
2024-01-16T22:35:32.266Z,8.98
2024-01-16T22:38:00.499Z,10.07
2024-01-16T22:40:29.178Z,6.57
2024-01-16T22:42:58.431Z,9.52
2024-01-16T22:45:26.858Z,9.68
2024-01-16T22:47:58.683Z,7.00
2024-01-16T22:50:27.642Z,8.70
2024-01-16T22:52:57.033Z,8.97
2024-01-16T22:55:26.314Z,9.25
2024-01-16T22:57:54.432Z,13.35
2024-01-16T23:00:23.062Z,7.97
2024-01-16T23:02:52.136Z,6.70
2024-01-16T23:05:21.324Z,10.38
2024-01-16T23:07:50.799Z,9.20
2024-01-16T23:10:22.352Z,9.32
2024-01-16T23:12:51.137Z,7.47
2024-01-16T23:15:19.417Z,8.57
2024-01-16T23:17:48.640Z,13.13
2024-01-16T23:20:17.571Z,8.40
2024-01-16T23:22:46.618Z,7.47
2024-01-16T23:25:17.452Z,11.00
2024-01-16T23:27:50.364Z,9.35
2024-01-16T23:30:20.825Z,8.63
2024-01-16T23:35:17.844Z,7.50
2024-01-16T23:37:49.779Z,6.05
2024-01-16T23:40:19.561Z,8.80
2024-01-16T23:42:50.175Z,9.77
2024-01-16T23:45:24.506Z,8.52
2024-01-16T23:48:01.600Z,7.22
2024-01-16T23:50:30.188Z,10.43
2024-01-16T23:52:58.666Z,9.10
2024-01-16T23:55:27.755Z,7.20
2024-01-16T23:57:57.636Z,7.20
